sensor_id;sensor_type;location;lat;lon;timestamp;temperature;humidity
40289;DHT22;28991;52.028;5.526;2023-05-17T00:00:54;20.80;47.30
40289;DHT22;28991;52.028;5.526;2023-05-17T00:03:19;20.80;47.30
40289;DHT22;28991;52.028;5.526;2023-05-17T00:05:45;20.80;47.30
40289;DHT22;28991;52.028;5.526;2023-05-17T00:08:11;20.80;47.30
40289;DHT22;28991;52.028;5.526;2023-05-17T00:10:36;20.80;47.30
40289;DHT22;28991;52.028;5.526;2023-05-17T00:13:02;21.30;47.60
40289;DHT22;28991;52.028;5.526;2023-05-17T00:15:28;20.90;47.40
40289;DHT22;28991;52.028;5.526;2023-05-17T00:17:54;20.80;47.40
40289;DHT22;28991;52.028;5.526;2023-05-17T00:20:20;20.80;47.40
40289;DHT22;28991;52.028;5.526;2023-05-17T00:22:46;20.80;47.40
40289;DHT22;28991;52.028;5.526;2023-05-17T00:25:11;20.80;47.40
40289;DHT22;28991;52.028;5.526;2023-05-17T00:27:37;20.80;47.40
40289;DHT22;28991;52.028;5.526;2023-05-17T00:30:03;20.80;47.40
40289;DHT22;28991;52.028;5.526;2023-05-17T00:32:29;20.80;47.50
40289;DHT22;28991;52.028;5.526;2023-05-17T00:34:54;20.80;47.50
40289;DHT22;28991;52.028;5.526;2023-05-17T00:37:20;20.70;47.50
40289;DHT22;28991;52.028;5.526;2023-05-17T00:39:46;20.80;47.60
40289;DHT22;28991;52.028;5.526;2023-05-17T00:42:11;20.80;47.60
40289;DHT22;28991;52.028;5.526;2023-05-17T00:44:37;20.90;47.60
40289;DHT22;28991;52.028;5.526;2023-05-17T00:47:03;20.70;47.60
40289;DHT22;28991;52.028;5.526;2023-05-17T00:49:28;20.70;47.60
40289;DHT22;28991;52.028;5.526;2023-05-17T00:51:54;20.80;47.70
40289;DHT22;28991;52.028;5.526;2023-05-17T00:54:20;20.70;47.60
40289;DHT22;28991;52.028;5.526;2023-05-17T00:56:46;20.70;47.60
40289;DHT22;28991;52.028;5.526;2023-05-17T00:59:12;20.70;47.60
40289;DHT22;28991;52.028;5.526;2023-05-17T01:01:42;20.60;47.60
40289;DHT22;28991;52.028;5.526;2023-05-17T01:04:08;20.80;47.70
40289;DHT22;28991;52.028;5.526;2023-05-17T01:06:35;20.70;47.70
40289;DHT22;28991;52.028;5.526;2023-05-17T01:09:02;20.70;47.70
40289;DHT22;28991;52.028;5.526;2023-05-17T01:11:38;20.70;47.70
40289;DHT22;28991;52.028;5.526;2023-05-17T01:14:17;20.70;47.80
40289;DHT22;28991;52.028;5.526;2023-05-17T01:16:54;20.70;47.80
40289;DHT22;28991;52.028;5.526;2023-05-17T01:27:42;20.70;47.90
40289;DHT22;28991;52.028;5.526;2023-05-17T01:30:12;20.80;48.00
40289;DHT22;28991;52.028;5.526;2023-05-17T01:32:42;20.70;47.90
40289;DHT22;28991;52.028;5.526;2023-05-17T01:35:10;20.70;47.90
40289;DHT22;28991;52.028;5.526;2023-05-17T01:37:39;20.70;47.90
40289;DHT22;28991;52.028;5.526;2023-05-17T01:40:06;20.70;47.90
40289;DHT22;28991;52.028;5.526;2023-05-17T01:42:33;20.70;47.90
40289;DHT22;28991;52.028;5.526;2023-05-17T01:48:07;20.70;48.00
40289;DHT22;28991;52.028;5.526;2023-05-17T01:50:37;20.70;48.00
40289;DHT22;28991;52.028;5.526;2023-05-17T01:53:17;20.50;47.90
40289;DHT22;28991;52.028;5.526;2023-05-17T01:55:53;20.70;48.00
40289;DHT22;28991;52.028;5.526;2023-05-17T01:58:20;20.70;48.00
40289;DHT22;28991;52.028;5.526;2023-05-17T02:00:48;20.70;48.00
40289;DHT22;28991;52.028;5.526;2023-05-17T02:03:18;20.60;48.00
40289;DHT22;28991;52.028;5.526;2023-05-17T02:05:44;20.70;48.00
40289;DHT22;28991;52.028;5.526;2023-05-17T02:08:10;20.60;48.00
40289;DHT22;28991;52.028;5.526;2023-05-17T02:10:36;20.70;48.10
40289;DHT22;28991;52.028;5.526;2023-05-17T02:13:01;20.70;48.10
40289;DHT22;28991;52.028;5.526;2023-05-17T02:15:27;20.70;48.10
40289;DHT22;28991;52.028;5.526;2023-05-17T02:17:52;20.60;48.00
40289;DHT22;28991;52.028;5.526;2023-05-17T02:20:18;20.90;48.20
40289;DHT22;28991;52.028;5.526;2023-05-17T02:22:44;20.60;48.10
40289;DHT22;28991;52.028;5.526;2023-05-17T02:25:09;20.60;48.00
40289;DHT22;28991;52.028;5.526;2023-05-17T02:27:35;20.60;48.10
40289;DHT22;28991;52.028;5.526;2023-05-17T02:30:01;21.20;48.40
40289;DHT22;28991;52.028;5.526;2023-05-17T02:32:28;20.60;48.10
40289;DHT22;28991;52.028;5.526;2023-05-17T02:34:54;20.60;48.10
40289;DHT22;28991;52.028;5.526;2023-05-17T02:37:20;20.80;48.20
40289;DHT22;28991;52.028;5.526;2023-05-17T02:39:45;20.70;48.10
40289;DHT22;28991;52.028;5.526;2023-05-17T02:42:11;20.70;48.20
40289;DHT22;28991;52.028;5.526;2023-05-17T02:44:37;20.60;48.10
40289;DHT22;28991;52.028;5.526;2023-05-17T02:47:03;20.90;48.20
40289;DHT22;28991;52.028;5.526;2023-05-17T02:49:28;20.60;48.10
40289;DHT22;28991;52.028;5.526;2023-05-17T02:51:54;20.60;48.10
40289;DHT22;28991;52.028;5.526;2023-05-17T02:54:20;20.70;48.20
40289;DHT22;28991;52.028;5.526;2023-05-17T02:56:45;20.60;48.10
40289;DHT22;28991;52.028;5.526;2023-05-17T02:59:11;21.10;48.40
40289;DHT22;28991;52.028;5.526;2023-05-17T03:01:37;20.70;48.30
40289;DHT22;28991;52.028;5.526;2023-05-17T03:04:02;20.60;48.10
40289;DHT22;28991;52.028;5.526;2023-05-17T03:06:28;20.60;48.20
40289;DHT22;28991;52.028;5.526;2023-05-17T03:08:53;20.70;48.20
40289;DHT22;28991;52.028;5.526;2023-05-17T03:11:19;20.60;48.20
40289;DHT22;28991;52.028;5.526;2023-05-17T03:13:44;20.60;48.20
40289;DHT22;28991;52.028;5.526;2023-05-17T03:16:17;20.60;48.20
40289;DHT22;28991;52.028;5.526;2023-05-17T03:18:43;20.70;48.30
40289;DHT22;28991;52.028;5.526;2023-05-17T03:21:08;20.60;48.20
40289;DHT22;28991;52.028;5.526;2023-05-17T03:23:34;20.60;48.20
40289;DHT22;28991;52.028;5.526;2023-05-17T03:25:59;20.80;48.30
40289;DHT22;28991;52.028;5.526;2023-05-17T03:28:25;20.60;48.30
40289;DHT22;28991;52.028;5.526;2023-05-17T03:30:50;20.80;48.40
40289;DHT22;28991;52.028;5.526;2023-05-17T03:33:17;20.60;48.30
40289;DHT22;28991;52.028;5.526;2023-05-17T03:35:43;20.60;48.30
40289;DHT22;28991;52.028;5.526;2023-05-17T03:38:10;21.00;48.50
40289;DHT22;28991;52.028;5.526;2023-05-17T03:40:36;20.60;48.30
40289;DHT22;28991;52.028;5.526;2023-05-17T03:43:01;20.60;48.30
40289;DHT22;28991;52.028;5.526;2023-05-17T03:45:27;20.60;48.30
40289;DHT22;28991;52.028;5.526;2023-05-17T03:47:52;20.80;48.40
40289;DHT22;28991;52.028;5.526;2023-05-17T03:50:18;20.70;48.40
40289;DHT22;28991;52.028;5.526;2023-05-17T03:52:43;20.70;48.40
40289;DHT22;28991;52.028;5.526;2023-05-17T03:55:10;20.60;48.30
40289;DHT22;28991;52.028;5.526;2023-05-17T03:57:36;20.60;48.30
40289;DHT22;28991;52.028;5.526;2023-05-17T04:00:02;20.50;48.30
40289;DHT22;28991;52.028;5.526;2023-05-17T04:02:31;20.60;48.30
40289;DHT22;28991;52.028;5.526;2023-05-17T04:04:56;20.60;48.30
40289;DHT22;28991;52.028;5.526;2023-05-17T04:07:22;20.60;48.30
40289;DHT22;28991;52.028;5.526;2023-05-17T04:09:47;20.90;48.40
40289;DHT22;28991;52.028;5.526;2023-05-17T04:12:13;20.70;48.30
40289;DHT22;28991;52.028;5.526;2023-05-17T04:14:39;21.40;48.70
40289;DHT22;28991;52.028;5.526;2023-05-17T04:17:05;20.70;48.20
40289;DHT22;28991;52.028;5.526;2023-05-17T04:19:31;20.70;48.20
40289;DHT22;28991;52.028;5.526;2023-05-17T04:21:56;20.70;48.20
40289;DHT22;28991;52.028;5.526;2023-05-17T04:24:22;20.70;48.10
40289;DHT22;28991;52.028;5.526;2023-05-17T04:26:47;20.80;48.10
40289;DHT22;28991;52.028;5.526;2023-05-17T04:29:13;20.80;48.00
40289;DHT22;28991;52.028;5.526;2023-05-17T04:31:38;20.90;48.00
40289;DHT22;28991;52.028;5.526;2023-05-17T04:34:04;21.40;48.40
40289;DHT22;28991;52.028;5.526;2023-05-17T04:36:29;20.90;47.90
40289;DHT22;28991;52.028;5.526;2023-05-17T04:38:55;20.70;47.70
40289;DHT22;28991;52.028;5.526;2023-05-17T04:41:21;21.00;47.70
40289;DHT22;28991;52.028;5.526;2023-05-17T04:43:46;21.10;47.60
40289;DHT22;28991;52.028;5.526;2023-05-17T04:46:12;21.30;47.50
40289;DHT22;28991;52.028;5.526;2023-05-17T04:48:37;21.50;47.20
40289;DHT22;28991;52.028;5.526;2023-05-17T04:51:03;21.60;46.90
40289;DHT22;28991;52.028;5.526;2023-05-17T04:53:29;21.80;46.60
40289;DHT22;28991;52.028;5.526;2023-05-17T04:55:56;22.00;46.30
40289;DHT22;28991;52.028;5.526;2023-05-17T04:58:22;22.10;46.00
40289;DHT22;28991;52.028;5.526;2023-05-17T05:00:49;22.40;45.80
40289;DHT22;28991;52.028;5.526;2023-05-17T05:03:14;22.50;45.40
40289;DHT22;28991;52.028;5.526;2023-05-17T05:05:40;22.70;45.20
40289;DHT22;28991;52.028;5.526;2023-05-17T05:08:05;22.90;45.00
40289;DHT22;28991;52.028;5.526;2023-05-17T05:10:31;23.10;44.60
40289;DHT22;28991;52.028;5.526;2023-05-17T05:12:57;23.30;44.30
40289;DHT22;28991;52.028;5.526;2023-05-17T05:15:23;23.50;43.90
40289;DHT22;28991;52.028;5.526;2023-05-17T05:17:48;23.70;43.50
40289;DHT22;28991;52.028;5.526;2023-05-17T05:20:14;23.90;43.10
40289;DHT22;28991;52.028;5.526;2023-05-17T05:22:40;24.00;42.50
40289;DHT22;28991;52.028;5.526;2023-05-17T05:25:06;24.30;42.10
40289;DHT22;28991;52.028;5.526;2023-05-17T05:27:32;24.30;41.40
40289;DHT22;28991;52.028;5.526;2023-05-17T05:29:59;24.50;41.00
40289;DHT22;28991;52.028;5.526;2023-05-17T05:32:25;24.70;40.40
40289;DHT22;28991;52.028;5.526;2023-05-17T05:34:51;24.90;40.10
40289;DHT22;28991;52.028;5.526;2023-05-17T05:37:16;25.00;39.70
40289;DHT22;28991;52.028;5.526;2023-05-17T05:39:44;25.20;39.30
40289;DHT22;28991;52.028;5.526;2023-05-17T05:42:09;25.40;39.10
40289;DHT22;28991;52.028;5.526;2023-05-17T05:44:35;25.60;38.70
40289;DHT22;28991;52.028;5.526;2023-05-17T05:47:00;25.80;38.30
40289;DHT22;28991;52.028;5.526;2023-05-17T05:49:26;26.00;38.00
40289;DHT22;28991;52.028;5.526;2023-05-17T05:51:51;26.10;37.50
40289;DHT22;28991;52.028;5.526;2023-05-17T05:54:17;26.30;37.70
40289;DHT22;28991;52.028;5.526;2023-05-17T05:56:42;26.50;36.80
40289;DHT22;28991;52.028;5.526;2023-05-17T05:59:08;26.50;36.40
40289;DHT22;28991;52.028;5.526;2023-05-17T06:01:34;26.70;36.30
40289;DHT22;28991;52.028;5.526;2023-05-17T06:03:59;26.80;36.00
40289;DHT22;28991;52.028;5.526;2023-05-17T06:06:25;26.90;35.80
40289;DHT22;28991;52.028;5.526;2023-05-17T06:08:51;27.00;35.70
40289;DHT22;28991;52.028;5.526;2023-05-17T06:11:17;27.10;35.60
40289;DHT22;28991;52.028;5.526;2023-05-17T06:13:44;27.20;35.50
40289;DHT22;28991;52.028;5.526;2023-05-17T06:16:10;27.20;34.50
40289;DHT22;28991;52.028;5.526;2023-05-17T06:18:35;27.30;35.30
40289;DHT22;28991;52.028;5.526;2023-05-17T06:21:01;27.40;35.10
40289;DHT22;28991;52.028;5.526;2023-05-17T06:23:27;27.50;34.90
40289;DHT22;28991;52.028;5.526;2023-05-17T06:25:52;27.60;34.80
40289;DHT22;28991;52.028;5.526;2023-05-17T06:28:18;27.70;34.70
40289;DHT22;28991;52.028;5.526;2023-05-17T06:30:43;27.80;34.60
40289;DHT22;28991;52.028;5.526;2023-05-17T06:33:09;27.90;34.60
40289;DHT22;28991;52.028;5.526;2023-05-17T06:35:35;27.90;34.30
40289;DHT22;28991;52.028;5.526;2023-05-17T06:38:01;28.00;34.20
40289;DHT22;28991;52.028;5.526;2023-05-17T06:40:26;28.10;34.40
40289;DHT22;28991;52.028;5.526;2023-05-17T06:42:52;28.00;34.20
40289;DHT22;28991;52.028;5.526;2023-05-17T06:45:17;28.00;34.10
40289;DHT22;28991;52.028;5.526;2023-05-17T06:47:43;28.00;34.20
40289;DHT22;28991;52.028;5.526;2023-05-17T06:50:09;28.00;34.40
40289;DHT22;28991;52.028;5.526;2023-05-17T06:52:35;27.90;34.00
40289;DHT22;28991;52.028;5.526;2023-05-17T06:55:00;27.80;33.80
40289;DHT22;28991;52.028;5.526;2023-05-17T06:57:26;27.80;33.90
40289;DHT22;28991;52.028;5.526;2023-05-17T06:59:51;27.70;33.90
40289;DHT22;28991;52.028;5.526;2023-05-17T07:02:18;27.60;34.00
40289;DHT22;28991;52.028;5.526;2023-05-17T07:04:43;27.50;34.10
40289;DHT22;28991;52.028;5.526;2023-05-17T07:07:09;27.50;34.10
40289;DHT22;28991;52.028;5.526;2023-05-17T07:09:36;27.40;34.10
40289;DHT22;28991;52.028;5.526;2023-05-17T07:12:01;27.40;34.00
40289;DHT22;28991;52.028;5.526;2023-05-17T07:14:27;27.40;33.90
40289;DHT22;28991;52.028;5.526;2023-05-17T07:16:53;27.40;33.80
40289;DHT22;28991;52.028;5.526;2023-05-17T07:19:19;27.40;33.80
40289;DHT22;28991;52.028;5.526;2023-05-17T07:21:45;27.30;33.60
40289;DHT22;28991;52.028;5.526;2023-05-17T07:24:11;27.10;33.80
40289;DHT22;28991;52.028;5.526;2023-05-17T07:26:36;27.10;33.80
40289;DHT22;28991;52.028;5.526;2023-05-17T07:29:02;26.80;33.80
40289;DHT22;28991;52.028;5.526;2023-05-17T07:31:27;26.50;34.00
40289;DHT22;28991;52.028;5.526;2023-05-17T07:33:53;26.20;34.30
40289;DHT22;28991;52.028;5.526;2023-05-17T07:36:18;26.10;34.50
40289;DHT22;28991;52.028;5.526;2023-05-17T07:38:44;25.80;34.70
40289;DHT22;28991;52.028;5.526;2023-05-17T07:41:10;25.60;34.90
40289;DHT22;28991;52.028;5.526;2023-05-17T07:43:37;25.80;35.90
40289;DHT22;28991;52.028;5.526;2023-05-17T07:46:03;25.30;35.30
40289;DHT22;28991;52.028;5.526;2023-05-17T07:48:29;25.30;35.40
40289;DHT22;28991;52.028;5.526;2023-05-17T07:50:55;25.30;36.00
40289;DHT22;28991;52.028;5.526;2023-05-17T07:53:20;25.40;35.40
40289;DHT22;28991;52.028;5.526;2023-05-17T07:55:46;25.40;35.40
40289;DHT22;28991;52.028;5.526;2023-05-17T07:58:12;25.40;35.60
40289;DHT22;28991;52.028;5.526;2023-05-17T08:00:37;25.30;35.60
40289;DHT22;28991;52.028;5.526;2023-05-17T08:03:03;25.40;35.70
40289;DHT22;28991;52.028;5.526;2023-05-17T08:05:29;25.40;35.60
40289;DHT22;28991;52.028;5.526;2023-05-17T08:07:54;25.40;35.50
40289;DHT22;28991;52.028;5.526;2023-05-17T08:10:23;25.40;35.60
40289;DHT22;28991;52.028;5.526;2023-05-17T08:12:49;25.20;35.60
40289;DHT22;28991;52.028;5.526;2023-05-17T08:15:14;25.00;35.60
40289;DHT22;28991;52.028;5.526;2023-05-17T08:17:40;24.80;35.90
40289;DHT22;28991;52.028;5.526;2023-05-17T08:20:06;24.70;36.00
40289;DHT22;28991;52.028;5.526;2023-05-17T08:22:32;24.60;35.90
40289;DHT22;28991;52.028;5.526;2023-05-17T08:24:57;24.40;36.10
40289;DHT22;28991;52.028;5.526;2023-05-17T08:27:23;24.40;36.20
40289;DHT22;28991;52.028;5.526;2023-05-17T08:29:50;24.20;36.20
40289;DHT22;28991;52.028;5.526;2023-05-17T08:32:16;24.10;36.40
40289;DHT22;28991;52.028;5.526;2023-05-17T08:34:42;24.00;36.50
40289;DHT22;28991;52.028;5.526;2023-05-17T08:37:07;24.00;36.70
40289;DHT22;28991;52.028;5.526;2023-05-17T08:39:34;23.80;36.70
40289;DHT22;28991;52.028;5.526;2023-05-17T08:42:00;23.80;36.80
40289;DHT22;28991;52.028;5.526;2023-05-17T08:44:27;23.70;36.80
40289;DHT22;28991;52.028;5.526;2023-05-17T08:46:54;23.70;36.30
40289;DHT22;28991;52.028;5.526;2023-05-17T08:49:21;23.70;36.80
40289;DHT22;28991;52.028;5.526;2023-05-17T08:51:52;23.80;36.80
40289;DHT22;28991;52.028;5.526;2023-05-17T08:54:18;23.70;36.60
40289;DHT22;28991;52.028;5.526;2023-05-17T08:56:44;23.70;36.50
40289;DHT22;28991;52.028;5.526;2023-05-17T08:59:11;23.70;36.60
40289;DHT22;28991;52.028;5.526;2023-05-17T09:01:39;23.60;36.60
40289;DHT22;28991;52.028;5.526;2023-05-17T09:04:10;23.60;36.60
40289;DHT22;28991;52.028;5.526;2023-05-17T09:06:36;23.60;36.70
40289;DHT22;28991;52.028;5.526;2023-05-17T09:09:03;23.60;36.70
40289;DHT22;28991;52.028;5.526;2023-05-17T09:11:31;23.60;36.60
40289;DHT22;28991;52.028;5.526;2023-05-17T09:13:58;23.60;36.70
40289;DHT22;28991;52.028;5.526;2023-05-17T09:16:24;23.60;36.70
40289;DHT22;28991;52.028;5.526;2023-05-17T09:18:56;23.60;36.60
40289;DHT22;28991;52.028;5.526;2023-05-17T09:21:23;24.10;36.80
40289;DHT22;28991;52.028;5.526;2023-05-17T09:23:50;23.70;36.50
40289;DHT22;28991;52.028;5.526;2023-05-17T09:26:16;23.80;36.50
40289;DHT22;28991;52.028;5.526;2023-05-17T09:28:43;23.70;36.30
40289;DHT22;28991;52.028;5.526;2023-05-17T09:31:10;23.80;35.90
40289;DHT22;28991;52.028;5.526;2023-05-17T09:33:47;23.80;36.20
40289;DHT22;28991;52.028;5.526;2023-05-17T09:36:17;23.70;36.10
40289;DHT22;28991;52.028;5.526;2023-05-17T09:39:01;23.70;36.20
40289;DHT22;28991;52.028;5.526;2023-05-17T09:41:31;23.80;36.30
40289;DHT22;28991;52.028;5.526;2023-05-17T09:44:00;23.80;36.30
40289;DHT22;28991;52.028;5.526;2023-05-17T09:46:33;23.80;36.20
40289;DHT22;28991;52.028;5.526;2023-05-17T09:49:01;23.80;36.10
40289;DHT22;28991;52.028;5.526;2023-05-17T09:51:41;23.80;35.90
40289;DHT22;28991;52.028;5.526;2023-05-17T09:54:07;23.90;35.80
40289;DHT22;28991;52.028;5.526;2023-05-17T09:56:35;23.90;35.60
40289;DHT22;28991;52.028;5.526;2023-05-17T09:59:01;23.90;35.50
40289;DHT22;28991;52.028;5.526;2023-05-17T10:01:28;24.00;35.40
40289;DHT22;28991;52.028;5.526;2023-05-17T10:03:58;23.90;35.20
40289;DHT22;28991;52.028;5.526;2023-05-17T10:06:28;23.80;34.90
40289;DHT22;28991;52.028;5.526;2023-05-17T10:08:55;23.80;34.80
40289;DHT22;28991;52.028;5.526;2023-05-17T10:11:25;23.70;35.20
40289;DHT22;28991;52.028;5.526;2023-05-17T10:14:00;23.70;34.80
40289;DHT22;28991;52.028;5.526;2023-05-17T10:16:31;23.70;34.70
40289;DHT22;28991;52.028;5.526;2023-05-17T10:18:57;23.60;34.70
40289;DHT22;28991;52.028;5.526;2023-05-17T10:21:24;23.60;34.60
40289;DHT22;28991;52.028;5.526;2023-05-17T10:23:50;23.60;34.70
40289;DHT22;28991;52.028;5.526;2023-05-17T10:26:17;23.60;35.10
40289;DHT22;28991;52.028;5.526;2023-05-17T10:28:43;23.60;34.70
40289;DHT22;28991;52.028;5.526;2023-05-17T10:31:11;23.50;34.40
40289;DHT22;28991;52.028;5.526;2023-05-17T10:33:37;23.50;34.50
40289;DHT22;28991;52.028;5.526;2023-05-17T10:36:04;23.50;34.50
40289;DHT22;28991;52.028;5.526;2023-05-17T10:38:31;23.50;34.60
40289;DHT22;28991;52.028;5.526;2023-05-17T10:40:57;23.50;34.50
40289;DHT22;28991;52.028;5.526;2023-05-17T10:43:23;23.40;34.30
40289;DHT22;28991;52.028;5.526;2023-05-17T10:45:51;23.40;34.50
40289;DHT22;28991;52.028;5.526;2023-05-17T10:48:17;23.40;34.40
40289;DHT22;28991;52.028;5.526;2023-05-17T10:50:45;23.40;34.40
40289;DHT22;28991;52.028;5.526;2023-05-17T10:53:11;23.30;34.20
40289;DHT22;28991;52.028;5.526;2023-05-17T10:55:41;23.30;34.30
40289;DHT22;28991;52.028;5.526;2023-05-17T10:58:18;23.30;34.30
40289;DHT22;28991;52.028;5.526;2023-05-17T11:00:53;23.30;34.20
40289;DHT22;28991;52.028;5.526;2023-05-17T11:03:22;23.30;34.60
40289;DHT22;28991;52.028;5.526;2023-05-17T11:08:35;23.30;33.00
40289;DHT22;28991;52.028;5.526;2023-05-17T11:11:08;23.20;33.80
40289;DHT22;28991;52.028;5.526;2023-05-17T11:16:14;23.20;34.00
40289;DHT22;28991;52.028;5.526;2023-05-17T11:18:51;23.20;33.70
40289;DHT22;28991;52.028;5.526;2023-05-17T11:21:17;23.20;34.40
40289;DHT22;28991;52.028;5.526;2023-05-17T11:23:44;23.20;33.80
40289;DHT22;28991;52.028;5.526;2023-05-17T11:26:36;23.10;33.80
40289;DHT22;28991;52.028;5.526;2023-05-17T11:29:07;23.10;33.90
40289;DHT22;28991;52.028;5.526;2023-05-17T11:31:34;23.10;33.80
40289;DHT22;28991;52.028;5.526;2023-05-17T11:34:02;23.10;33.90
40289;DHT22;28991;52.028;5.526;2023-05-17T11:36:28;23.40;33.90
40289;DHT22;28991;52.028;5.526;2023-05-17T11:39:14;23.10;33.70
40289;DHT22;28991;52.028;5.526;2023-05-17T11:41:47;23.10;33.30
40289;DHT22;28991;52.028;5.526;2023-05-17T11:44:15;23.10;33.40
40289;DHT22;28991;52.028;5.526;2023-05-17T11:46:41;22.90;33.20
40289;DHT22;28991;52.028;5.526;2023-05-17T11:49:07;23.00;33.30
40289;DHT22;28991;52.028;5.526;2023-05-17T11:51:33;23.00;33.90
40289;DHT22;28991;52.028;5.526;2023-05-17T11:53:59;23.00;33.10
40289;DHT22;28991;52.028;5.526;2023-05-17T11:56:33;23.00;33.00
40289;DHT22;28991;52.028;5.526;2023-05-17T11:59:01;23.00;33.00
40289;DHT22;28991;52.028;5.526;2023-05-17T12:01:27;23.00;33.20
40289;DHT22;28991;52.028;5.526;2023-05-17T12:03:55;23.00;32.90
40289;DHT22;28991;52.028;5.526;2023-05-17T12:06:24;23.10;33.00
40289;DHT22;28991;52.028;5.526;2023-05-17T12:08:50;23.30;32.30
40289;DHT22;28991;52.028;5.526;2023-05-17T12:11:16;23.00;32.70
40289;DHT22;28991;52.028;5.526;2023-05-17T12:13:43;23.00;32.90
40289;DHT22;28991;52.028;5.526;2023-05-17T12:16:13;23.00;33.00
40289;DHT22;28991;52.028;5.526;2023-05-17T12:18:43;23.00;33.60
40289;DHT22;28991;52.028;5.526;2023-05-17T12:21:12;22.90;33.00
40289;DHT22;28991;52.028;5.526;2023-05-17T12:23:43;22.90;33.10
40289;DHT22;28991;52.028;5.526;2023-05-17T12:26:11;22.90;33.00
40289;DHT22;28991;52.028;5.526;2023-05-17T12:28:38;22.90;32.90
40289;DHT22;28991;52.028;5.526;2023-05-17T12:31:08;23.40;33.20
40289;DHT22;28991;52.028;5.526;2023-05-17T12:33:36;23.40;33.20
40289;DHT22;28991;52.028;5.526;2023-05-17T12:36:04;23.00;32.80
40289;DHT22;28991;52.028;5.526;2023-05-17T12:38:34;22.90;32.80
40289;DHT22;28991;52.028;5.526;2023-05-17T12:41:01;22.90;33.00
40289;DHT22;28991;52.028;5.526;2023-05-17T12:43:28;22.80;33.00
40289;DHT22;28991;52.028;5.526;2023-05-17T12:46:05;22.90;33.00
40289;DHT22;28991;52.028;5.526;2023-05-17T12:48:35;22.80;33.00
40289;DHT22;28991;52.028;5.526;2023-05-17T12:51:21;22.80;33.00
40289;DHT22;28991;52.028;5.526;2023-05-17T12:53:54;22.90;33.00
40289;DHT22;28991;52.028;5.526;2023-05-17T12:56:26;22.90;33.00
40289;DHT22;28991;52.028;5.526;2023-05-17T12:59:15;23.10;33.00
40289;DHT22;28991;52.028;5.526;2023-05-17T13:01:48;22.80;32.90
40289;DHT22;28991;52.028;5.526;2023-05-17T13:04:15;22.80;32.90
40289;DHT22;28991;52.028;5.526;2023-05-17T13:06:48;22.80;32.80
40289;DHT22;28991;52.028;5.526;2023-05-17T13:09:15;22.80;32.80
40289;DHT22;28991;52.028;5.526;2023-05-17T13:11:43;22.80;32.70
40289;DHT22;28991;52.028;5.526;2023-05-17T13:14:09;22.80;32.60
40289;DHT22;28991;52.028;5.526;2023-05-17T13:16:37;22.80;32.60
40289;DHT22;28991;52.028;5.526;2023-05-17T13:19:11;22.80;32.60
40289;DHT22;28991;52.028;5.526;2023-05-17T13:21:37;22.70;32.40
40289;DHT22;28991;52.028;5.526;2023-05-17T13:24:03;22.70;32.30
40289;DHT22;28991;52.028;5.526;2023-05-17T13:26:28;22.80;32.40
40289;DHT22;28991;52.028;5.526;2023-05-17T13:28:54;22.80;32.20
40289;DHT22;28991;52.028;5.526;2023-05-17T13:31:19;22.80;32.20
40289;DHT22;28991;52.028;5.526;2023-05-17T13:33:45;22.70;32.20
40289;DHT22;28991;52.028;5.526;2023-05-17T13:36:15;22.80;32.20
40289;DHT22;28991;52.028;5.526;2023-05-17T13:38:40;22.70;32.30
40289;DHT22;28991;52.028;5.526;2023-05-17T13:41:06;22.70;32.30
40289;DHT22;28991;52.028;5.526;2023-05-17T13:43:36;23.10;32.50
40289;DHT22;28991;52.028;5.526;2023-05-17T13:46:02;22.70;32.20
40289;DHT22;28991;52.028;5.526;2023-05-17T13:48:28;22.70;32.40
40289;DHT22;28991;52.028;5.526;2023-05-17T13:50:54;22.70;32.40
40289;DHT22;28991;52.028;5.526;2023-05-17T13:53:20;22.70;32.40
40289;DHT22;28991;52.028;5.526;2023-05-17T13:55:46;22.70;32.50
40289;DHT22;28991;52.028;5.526;2023-05-17T13:58:12;22.70;32.40
40289;DHT22;28991;52.028;5.526;2023-05-17T14:00:37;22.70;32.50
40289;DHT22;28991;52.028;5.526;2023-05-17T14:03:07;22.60;32.10
40289;DHT22;28991;52.028;5.526;2023-05-17T14:05:33;22.60;32.70
40289;DHT22;28991;52.028;5.526;2023-05-17T14:08:01;22.60;32.80
40289;DHT22;28991;52.028;5.526;2023-05-17T14:10:26;22.60;32.70
40289;DHT22;28991;52.028;5.526;2023-05-17T14:12:52;22.40;32.90
40289;DHT22;28991;52.028;5.526;2023-05-17T14:15:18;22.60;33.20
40289;DHT22;28991;52.028;5.526;2023-05-17T14:17:43;22.50;33.20
40289;DHT22;28991;52.028;5.526;2023-05-17T14:20:09;22.60;33.40
40289;DHT22;28991;52.028;5.526;2023-05-17T14:22:35;22.70;33.20
40289;DHT22;28991;52.028;5.526;2023-05-17T14:25:00;22.50;33.50
40289;DHT22;28991;52.028;5.526;2023-05-17T14:27:26;22.50;33.60
40289;DHT22;28991;52.028;5.526;2023-05-17T14:29:52;22.60;33.80
40289;DHT22;28991;52.028;5.526;2023-05-17T14:32:18;22.50;33.80
40289;DHT22;28991;52.028;5.526;2023-05-17T14:34:43;22.50;33.90
40289;DHT22;28991;52.028;5.526;2023-05-17T14:37:09;22.50;33.90
40289;DHT22;28991;52.028;5.526;2023-05-17T14:39:35;22.50;34.00
40289;DHT22;28991;52.028;5.526;2023-05-17T14:42:01;22.50;34.10
40289;DHT22;28991;52.028;5.526;2023-05-17T14:44:26;22.50;34.20
40289;DHT22;28991;52.028;5.526;2023-05-17T14:46:52;22.40;34.20
40289;DHT22;28991;52.028;5.526;2023-05-17T14:49:17;22.40;34.30
40289;DHT22;28991;52.028;5.526;2023-05-17T14:51:43;22.40;34.40
40289;DHT22;28991;52.028;5.526;2023-05-17T14:54:09;22.30;34.40
40289;DHT22;28991;52.028;5.526;2023-05-17T14:56:35;22.30;34.50
40289;DHT22;28991;52.028;5.526;2023-05-17T14:59:01;22.40;34.60
40289;DHT22;28991;52.028;5.526;2023-05-17T15:01:26;22.40;34.70
40289;DHT22;28991;52.028;5.526;2023-05-17T15:03:52;22.30;34.70
40289;DHT22;28991;52.028;5.526;2023-05-17T15:06:18;22.30;34.80
40289;DHT22;28991;52.028;5.526;2023-05-17T15:08:49;22.30;34.80
40289;DHT22;28991;52.028;5.526;2023-05-17T15:11:14;22.30;34.90
40289;DHT22;28991;52.028;5.526;2023-05-17T15:13:40;22.20;34.90
40289;DHT22;28991;52.028;5.526;2023-05-17T15:16:06;22.30;35.00
40289;DHT22;28991;52.028;5.526;2023-05-17T15:18:32;22.30;35.10
40289;DHT22;28991;52.028;5.526;2023-05-17T15:20:58;22.30;35.10
40289;DHT22;28991;52.028;5.526;2023-05-17T15:23:24;22.20;35.20
40289;DHT22;28991;52.028;5.526;2023-05-17T15:25:49;22.20;35.20
40289;DHT22;28991;52.028;5.526;2023-05-17T15:28:15;22.20;35.30
40289;DHT22;28991;52.028;5.526;2023-05-17T15:30:44;22.20;35.30
40289;DHT22;28991;52.028;5.526;2023-05-17T15:33:09;22.20;35.40
40289;DHT22;28991;52.028;5.526;2023-05-17T15:35:35;22.20;35.50
40289;DHT22;28991;52.028;5.526;2023-05-17T15:38:04;22.30;35.60
40289;DHT22;28991;52.028;5.526;2023-05-17T15:40:30;22.20;35.60
40289;DHT22;28991;52.028;5.526;2023-05-17T15:42:56;22.20;35.60
40289;DHT22;28991;52.028;5.526;2023-05-17T15:45:21;22.10;35.70